sensor_id;sensor_type;location;lat;lon;timestamp;pressure;altitude;pressure_sealevel;temperature;humidity
46955;BME280;32708;51.212;6.788;2022-12-29T00:00:52;99798.31;;;12.26;100.00
46955;BME280;32708;51.212;6.788;2022-12-29T00:03:18;99799.72;;;12.51;100.00
46955;BME280;32708;51.212;6.788;2022-12-29T00:05:44;99796.25;;;12.07;100.00
46955;BME280;32708;51.212;6.788;2022-12-29T00:08:10;99784.81;;;12.33;100.00
46955;BME280;32708;51.212;6.788;2022-12-29T00:10:36;99770.94;;;12.42;100.00
46955;BME280;32708;51.212;6.788;2022-12-29T00:13:02;99772.69;;;12.50;100.00
46955;BME280;32708;51.212;6.788;2022-12-29T00:15:46;99766.09;;;12.51;100.00
46955;BME280;32708;51.212;6.788;2022-12-29T00:18:12;99763.41;;;12.54;100.00
46955;BME280;32708;51.212;6.788;2022-12-29T00:20:39;99760.47;;;12.63;100.00
46955;BME280;32708;51.212;6.788;2022-12-29T00:23:24;99753.88;;;12.48;100.00
46955;BME280;32708;51.212;6.788;2022-12-29T00:26:17;99757.59;;;12.40;100.00
46955;BME280;32708;51.212;6.788;2022-12-29T00:29:02;99753.66;;;12.37;100.00
46955;BME280;32708;51.212;6.788;2022-12-29T00:31:48;99745.78;;;12.36;100.00
46955;BME280;32708;51.212;6.788;2022-12-29T00:34:33;99747.41;;;12.56;100.00
46955;BME280;32708;51.212;6.788;2022-12-29T00:37:17;99732.78;;;12.49;100.00
46955;BME280;32708;51.212;6.788;2022-12-29T00:40:05;99751.59;;;12.34;100.00
46955;BME280;32708;51.212;6.788;2022-12-29T00:42:50;99746.44;;;12.64;100.00
46955;BME280;32708;51.212;6.788;2022-12-29T00:45:35;99741.47;;;12.70;100.00
46955;BME280;32708;51.212;6.788;2022-12-29T00:48:01;99733.94;;;12.83;100.00
46955;BME280;32708;51.212;6.788;2022-12-29T00:50:27;99721.47;;;13.05;100.00
46955;BME280;32708;51.212;6.788;2022-12-29T00:52:53;99719.09;;;12.84;100.00
46955;BME280;32708;51.212;6.788;2022-12-29T00:55:19;99712.78;;;12.64;100.00
46955;BME280;32708;51.212;6.788;2022-12-29T00:57:45;99715.69;;;12.90;100.00
46955;BME280;32708;51.212;6.788;2022-12-29T01:00:12;99722.13;;;12.98;100.00
46955;BME280;32708;51.212;6.788;2022-12-29T01:02:38;99719.88;;;12.84;100.00
46955;BME280;32708;51.212;6.788;2022-12-29T01:05:04;99699.00;;;13.15;100.00
46955;BME280;32708;51.212;6.788;2022-12-29T01:07:30;99704.03;;;13.13;100.00
46955;BME280;32708;51.212;6.788;2022-12-29T01:09:56;99717.78;;;12.97;100.00
46955;BME280;32708;51.212;6.788;2022-12-29T01:12:38;99703.59;;;13.11;100.00
46955;BME280;32708;51.212;6.788;2022-12-29T01:15:12;99713.69;;;12.87;100.00
46955;BME280;32708;51.212;6.788;2022-12-29T01:17:39;99712.09;;;13.06;100.00
46955;BME280;32708;51.212;6.788;2022-12-29T01:20:07;99719.00;;;13.00;100.00
46955;BME280;32708;51.212;6.788;2022-12-29T01:22:35;99714.34;;;13.00;100.00
46955;BME280;32708;51.212;6.788;2022-12-29T01:25:01;99725.28;;;13.19;100.00
46955;BME280;32708;51.212;6.788;2022-12-29T01:27:27;99725.00;;;13.05;100.00
46955;BME280;32708;51.212;6.788;2022-12-29T01:29:53;99709.22;;;12.99;100.00
46955;BME280;32708;51.212;6.788;2022-12-29T01:32:20;99706.97;;;12.85;100.00
46955;BME280;32708;51.212;6.788;2022-12-29T01:34:46;99710.00;;;12.99;100.00
46955;BME280;32708;51.212;6.788;2022-12-29T01:37:12;99713.22;;;12.85;100.00
46955;BME280;32708;51.212;6.788;2022-12-29T01:39:38;99700.56;;;13.16;100.00
46955;BME280;32708;51.212;6.788;2022-12-29T01:42:04;99711.09;;;13.33;100.00
46955;BME280;32708;51.212;6.788;2022-12-29T01:45:02;99706.94;;;13.39;100.00
46955;BME280;32708;51.212;6.788;2022-12-29T01:47:46;99698.00;;;13.23;100.00
46955;BME280;32708;51.212;6.788;2022-12-29T01:50:42;99692.94;;;13.25;100.00
46955;BME280;32708;51.212;6.788;2022-12-29T01:53:30;99699.78;;;13.15;100.00
46955;BME280;32708;51.212;6.788;2022-12-29T01:56:13;99685.47;;;13.06;100.00
46955;BME280;32708;51.212;6.788;2022-12-29T01:58:49;99673.88;;;13.13;100.00
46955;BME280;32708;51.212;6.788;2022-12-29T02:01:21;99675.44;;;13.14;100.00
46955;BME280;32708;51.212;6.788;2022-12-29T02:03:50;99679.88;;;12.99;100.00
46955;BME280;32708;51.212;6.788;2022-12-29T02:06:28;99670.72;;;13.30;100.00
46955;BME280;32708;51.212;6.788;2022-12-29T02:08:58;99665.94;;;13.27;100.00
46955;BME280;32708;51.212;6.788;2022-12-29T02:11:28;99669.34;;;13.01;100.00
46955;BME280;32708;51.212;6.788;2022-12-29T02:13:56;99665.66;;;13.32;100.00
46955;BME280;32708;51.212;6.788;2022-12-29T02:22:50;99659.31;;;13.09;100.00
46955;BME280;32708;51.212;6.788;2022-12-29T02:26:06;99659.63;;;13.23;100.00
46955;BME280;32708;51.212;6.788;2022-12-29T02:34:38;99644.22;;;13.18;100.00
46955;BME280;32708;51.212;6.788;2022-12-29T02:37:20;99638.13;;;13.25;100.00
46955;BME280;32708;51.212;6.788;2022-12-29T02:42:49;99642.38;;;13.23;100.00
46955;BME280;32708;51.212;6.788;2022-12-29T02:45:57;99633.63;;;13.36;100.00
46955;BME280;32708;51.212;6.788;2022-12-29T02:48:52;99629.53;;;13.27;100.00
46955;BME280;32708;51.212;6.788;2022-12-29T02:51:39;99638.63;;;13.31;100.00
46955;BME280;32708;51.212;6.788;2022-12-29T02:54:06;99631.97;;;13.32;100.00
46955;BME280;32708;51.212;6.788;2022-12-29T02:56:51;99620.13;;;13.28;100.00
46955;BME280;32708;51.212;6.788;2022-12-29T02:59:18;99624.63;;;13.16;100.00
46955;BME280;32708;51.212;6.788;2022-12-29T03:11:07;99606.63;;;13.38;100.00
46955;BME280;32708;51.212;6.788;2022-12-29T03:14:30;99608.00;;;13.29;100.00
46955;BME280;32708;51.212;6.788;2022-12-29T03:17:57;99615.28;;;13.40;100.00
46955;BME280;32708;51.212;6.788;2022-12-29T03:20:44;99609.50;;;13.23;100.00
46955;BME280;32708;51.212;6.788;2022-12-29T03:23:17;99602.84;;;13.24;100.00
46955;BME280;32708;51.212;6.788;2022-12-29T03:25:51;99598.13;;;13.43;100.00
46955;BME280;32708;51.212;6.788;2022-12-29T03:28:32;99589.44;;;13.41;100.00
46955;BME280;32708;51.212;6.788;2022-12-29T03:31:06;99591.66;;;13.32;100.00
46955;BME280;32708;51.212;6.788;2022-12-29T03:33:37;99594.94;;;13.41;100.00
46955;BME280;32708;51.212;6.788;2022-12-29T03:36:09;99596.50;;;13.42;100.00
46955;BME280;32708;51.212;6.788;2022-12-29T03:39:00;99593.84;;;13.46;100.00
46955;BME280;32708;51.212;6.788;2022-12-29T03:41:31;99588.94;;;13.36;100.00
46955;BME280;32708;51.212;6.788;2022-12-29T03:44:01;99588.16;;;13.81;100.00
46955;BME280;32708;51.212;6.788;2022-12-29T03:46:27;99583.53;;;13.39;100.00
46955;BME280;32708;51.212;6.788;2022-12-29T03:48:54;99592.38;;;13.52;100.00
46955;BME280;32708;51.212;6.788;2022-12-29T03:51:20;99580.06;;;13.42;100.00
46955;BME280;32708;51.212;6.788;2022-12-29T03:53:46;99584.81;;;13.45;100.00
46955;BME280;32708;51.212;6.788;2022-12-29T03:56:12;99569.88;;;13.43;100.00
46955;BME280;32708;51.212;6.788;2022-12-29T03:58:38;99563.22;;;13.67;100.00
46955;BME280;32708;51.212;6.788;2022-12-29T04:01:19;99569.88;;;13.43;100.00
46955;BME280;32708;51.212;6.788;2022-12-29T04:03:45;99557.91;;;13.51;100.00
46955;BME280;32708;51.212;6.788;2022-12-29T04:06:12;99547.66;;;13.48;100.00
46955;BME280;32708;51.212;6.788;2022-12-29T04:08:44;99544.84;;;13.44;100.00
46955;BME280;32708;51.212;6.788;2022-12-29T04:11:11;99543.41;;;13.51;100.00
46955;BME280;32708;51.212;6.788;2022-12-29T04:13:37;99564.66;;;13.34;100.00
46955;BME280;32708;51.212;6.788;2022-12-29T04:16:08;99571.53;;;13.47;100.00
46955;BME280;32708;51.212;6.788;2022-12-29T04:18:35;99569.59;;;13.48;100.00
46955;BME280;32708;51.212;6.788;2022-12-29T04:21:01;99579.03;;;13.51;100.00
46955;BME280;32708;51.212;6.788;2022-12-29T04:23:35;99587.03;;;13.36;100.00
46955;BME280;32708;51.212;6.788;2022-12-29T04:26:06;99578.47;;;13.41;100.00
46955;BME280;32708;51.212;6.788;2022-12-29T04:28:36;99585.38;;;13.55;100.00
46955;BME280;32708;51.212;6.788;2022-12-29T04:31:11;99569.53;;;13.44;100.00
46955;BME280;32708;51.212;6.788;2022-12-29T04:33:40;99561.72;;;13.46;100.00
46955;BME280;32708;51.212;6.788;2022-12-29T04:36:07;99568.38;;;13.45;100.00
46955;BME280;32708;51.212;6.788;2022-12-29T04:38:34;99561.34;;;13.48;100.00
46955;BME280;32708;51.212;6.788;2022-12-29T04:41:03;99567.97;;;13.43;100.00
46955;BME280;32708;51.212;6.788;2022-12-29T04:43:30;99558.06;;;13.62;100.00
46955;BME280;32708;51.212;6.788;2022-12-29T04:46:23;99568.91;;;13.55;100.00
46955;BME280;32708;51.212;6.788;2022-12-29T04:48:58;99565.16;;;13.40;100.00
46955;BME280;32708;51.212;6.788;2022-12-29T04:51:38;99563.97;;;13.41;100.00
46955;BME280;32708;51.212;6.788;2022-12-29T04:54:07;99575.03;;;13.44;100.00
46955;BME280;32708;51.212;6.788;2022-12-29T04:56:34;99576.66;;;13.49;100.00
46955;BME280;32708;51.212;6.788;2022-12-29T04:59:00;99567.97;;;13.70;100.00
46955;BME280;32708;51.212;6.788;2022-12-29T05:01:26;99569.13;;;13.69;100.00
46955;BME280;32708;51.212;6.788;2022-12-29T05:03:53;99571.34;;;13.60;100.00
46955;BME280;32708;51.212;6.788;2022-12-29T05:06:19;99582.56;;;13.51;100.00
46955;BME280;32708;51.212;6.788;2022-12-29T05:08:45;99581.47;;;13.56;100.00
46955;BME280;32708;51.212;6.788;2022-12-29T05:11:12;99578.28;;;13.54;100.00
46955;BME280;32708;51.212;6.788;2022-12-29T05:13:38;99577.66;;;13.64;100.00
46955;BME280;32708;51.212;6.788;2022-12-29T05:16:04;99594.56;;;13.43;100.00
46955;BME280;32708;51.212;6.788;2022-12-29T05:18:31;99571.00;;;13.38;100.00
46955;BME280;32708;51.212;6.788;2022-12-29T05:20:58;99595.16;;;13.56;100.00
46955;BME280;32708;51.212;6.788;2022-12-29T05:23:24;99586.88;;;13.75;100.00
46955;BME280;32708;51.212;6.788;2022-12-29T05:25:56;99596.44;;;13.62;100.00
46955;BME280;32708;51.212;6.788;2022-12-29T05:28:33;99589.66;;;13.78;100.00
46955;BME280;32708;51.212;6.788;2022-12-29T05:31:16;99590.91;;;13.58;100.00
46955;BME280;32708;51.212;6.788;2022-12-29T05:33:43;99587.16;;;13.70;100.00
46955;BME280;32708;51.212;6.788;2022-12-29T05:36:10;99587.97;;;13.70;100.00
46955;BME280;32708;51.212;6.788;2022-12-29T05:38:40;99582.91;;;13.49;100.00
46955;BME280;32708;51.212;6.788;2022-12-29T05:41:06;99583.41;;;13.32;100.00
46955;BME280;32708;51.212;6.788;2022-12-29T05:43:51;99599.47;;;13.11;100.00
46955;BME280;32708;51.212;6.788;2022-12-29T05:46:38;99593.59;;;13.32;100.00
46955;BME280;32708;51.212;6.788;2022-12-29T05:49:16;99602.19;;;13.30;100.00
46955;BME280;32708;51.212;6.788;2022-12-29T05:52:01;99600.63;;;13.29;100.00
46955;BME280;32708;51.212;6.788;2022-12-29T05:54:28;99587.25;;;13.28;100.00
46955;BME280;32708;51.212;6.788;2022-12-29T05:56:55;99594.00;;;13.57;100.00
46955;BME280;32708;51.212;6.788;2022-12-29T05:59:22;99594.78;;;13.57;100.00
46955;BME280;32708;51.212;6.788;2022-12-29T06:01:48;99601.03;;;13.31;100.00
46955;BME280;32708;51.212;6.788;2022-12-29T06:04:15;99629.06;;;13.44;100.00
46955;BME280;32708;51.212;6.788;2022-12-29T06:06:41;99622.47;;;13.48;100.00
46955;BME280;32708;51.212;6.788;2022-12-29T06:09:14;99621.84;;;13.36;100.00
46955;BME280;32708;51.212;6.788;2022-12-29T06:11:40;99627.41;;;13.39;100.00
46955;BME280;32708;51.212;6.788;2022-12-29T06:14:07;99624.13;;;13.53;100.00
46955;BME280;32708;51.212;6.788;2022-12-29T06:16:34;99633.19;;;13.34;100.00
46955;BME280;32708;51.212;6.788;2022-12-29T06:19:03;99626.00;;;13.26;100.00
46955;BME280;32708;51.212;6.788;2022-12-29T06:21:31;99621.59;;;13.21;100.00
46955;BME280;32708;51.212;6.788;2022-12-29T06:24:00;99623.22;;;13.23;100.00
46955;BME280;32708;51.212;6.788;2022-12-29T06:26:26;99632.22;;;13.23;100.00
46955;BME280;32708;51.212;6.788;2022-12-29T06:28:52;99642.88;;;13.28;100.00
46955;BME280;32708;51.212;6.788;2022-12-29T06:31:18;99658.88;;;13.26;100.00
46955;BME280;32708;51.212;6.788;2022-12-29T06:33:45;99654.41;;;13.18;100.00
46955;BME280;32708;51.212;6.788;2022-12-29T06:36:11;99658.59;;;13.31;100.00
46955;BME280;32708;51.212;6.788;2022-12-29T06:38:37;99667.84;;;13.23;100.00
46955;BME280;32708;51.212;6.788;2022-12-29T06:41:04;99670.72;;;13.30;100.00
46955;BME280;32708;51.212;6.788;2022-12-29T06:43:39;99667.25;;;13.33;100.00
46955;BME280;32708;51.212;6.788;2022-12-29T06:46:15;99665.81;;;13.39;100.00
46955;BME280;32708;51.212;6.788;2022-12-29T06:48:42;99651.66;;;13.18;100.00
46955;BME280;32708;51.212;6.788;2022-12-29T06:51:08;99661.69;;;13.10;100.00
46955;BME280;32708;51.212;6.788;2022-12-29T06:53:34;99665.81;;;13.20;100.00
46955;BME280;32708;51.212;6.788;2022-12-29T06:56:00;99663.16;;;13.24;100.00
46955;BME280;32708;51.212;6.788;2022-12-29T06:58:26;99667.09;;;13.45;100.00
46955;BME280;32708;51.212;6.788;2022-12-29T07:00:52;99670.44;;;13.16;100.00
46955;BME280;32708;51.212;6.788;2022-12-29T07:03:18;99677.84;;;13.15;100.00
46955;BME280;32708;51.212;6.788;2022-12-29T07:05:45;99667.06;;;13.23;100.00
46955;BME280;32708;51.212;6.788;2022-12-29T07:08:11;99670.41;;;13.35;100.00
46955;BME280;32708;51.212;6.788;2022-12-29T07:10:37;99660.06;;;13.25;100.00
46955;BME280;32708;51.212;6.788;2022-12-29T07:13:03;99672.72;;;13.14;100.00
46955;BME280;32708;51.212;6.788;2022-12-29T07:15:29;99673.75;;;13.25;100.00
46955;BME280;32708;51.212;6.788;2022-12-29T07:17:55;99681.31;;;13.32;100.00
46955;BME280;32708;51.212;6.788;2022-12-29T07:20:21;99684.91;;;13.36;100.00
46955;BME280;32708;51.212;6.788;2022-12-29T07:22:48;99678.94;;;13.11;100.00
46955;BME280;32708;51.212;6.788;2022-12-29T07:25:14;99688.81;;;13.15;100.00
46955;BME280;32708;51.212;6.788;2022-12-29T07:27:40;99674.69;;;12.75;100.00
46955;BME280;32708;51.212;6.788;2022-12-29T07:30:07;99683.56;;;13.26;100.00
46955;BME280;32708;51.212;6.788;2022-12-29T07:32:34;99686.59;;;13.21;100.00
46955;BME280;32708;51.212;6.788;2022-12-29T07:35:02;99691.63;;;13.19;100.00
46955;BME280;32708;51.212;6.788;2022-12-29T07:37:28;99716.72;;;13.02;100.00
46955;BME280;32708;51.212;6.788;2022-12-29T07:39:55;99717.72;;;13.13;100.00
46955;BME280;32708;51.212;6.788;2022-12-29T07:42:21;99711.38;;;12.89;100.00
46955;BME280;32708;51.212;6.788;2022-12-29T07:44:51;99717.63;;;13.25;100.00
46955;BME280;32708;51.212;6.788;2022-12-29T07:47:36;99714.19;;;13.12;100.00
46955;BME280;32708;51.212;6.788;2022-12-29T07:50:03;99725.00;;;12.86;100.00
46955;BME280;32708;51.212;6.788;2022-12-29T07:52:30;99723.69;;;12.99;100.00
46955;BME280;32708;51.212;6.788;2022-12-29T07:54:56;99723.06;;;13.06;100.00
46955;BME280;32708;51.212;6.788;2022-12-29T07:57:22;99726.56;;;13.22;100.00
46955;BME280;32708;51.212;6.788;2022-12-29T07:59:48;99724.94;;;13.02;100.00
46955;BME280;32708;51.212;6.788;2022-12-29T08:02:14;99725.75;;;13.21;100.00
46955;BME280;32708;51.212;6.788;2022-12-29T08:04:40;99729.34;;;13.06;100.00
46955;BME280;32708;51.212;6.788;2022-12-29T08:07:07;99728.41;;;13.18;100.00
46955;BME280;32708;51.212;6.788;2022-12-29T08:09:33;99732.06;;;13.22;100.00
46955;BME280;32708;51.212;6.788;2022-12-29T08:11:59;99730.91;;;13.07;100.00
46955;BME280;32708;51.212;6.788;2022-12-29T08:14:25;99735.44;;;13.00;100.00
46955;BME280;32708;51.212;6.788;2022-12-29T08:16:51;99742.91;;;13.18;100.00
46955;BME280;32708;51.212;6.788;2022-12-29T08:19:17;99736.56;;;12.95;100.00
46955;BME280;32708;51.212;6.788;2022-12-29T08:21:44;99733.56;;;12.84;100.00
46955;BME280;32708;51.212;6.788;2022-12-29T08:24:10;99742.72;;;12.92;100.00
46955;BME280;32708;51.212;6.788;2022-12-29T08:26:36;99744.19;;;13.05;100.00
46955;BME280;32708;51.212;6.788;2022-12-29T08:29:02;99749.88;;;12.97;100.00
46955;BME280;32708;51.212;6.788;2022-12-29T08:31:28;99747.56;;;12.79;100.00
46955;BME280;32708;51.212;6.788;2022-12-29T08:33:55;99760.09;;;12.80;100.00
46955;BME280;32708;51.212;6.788;2022-12-29T08:36:21;99770.66;;;12.47;100.00
46955;BME280;32708;51.212;6.788;2022-12-29T08:38:48;99783.22;;;12.48;100.00
46955;BME280;32708;51.212;6.788;2022-12-29T08:41:21;99814.81;;;12.13;100.00
46955;BME280;32708;51.212;6.788;2022-12-29T08:43:49;99807.84;;;12.16;100.00
46955;BME280;32708;51.212;6.788;2022-12-29T08:46:16;99806.59;;;11.98;100.00
46955;BME280;32708;51.212;6.788;2022-12-29T08:48:43;99797.22;;;11.99;100.00
46955;BME280;32708;51.212;6.788;2022-12-29T08:51:09;99809.00;;;12.15;100.00
46955;BME280;32708;51.212;6.788;2022-12-29T08:53:35;99815.28;;;12.31;100.00
46955;BME280;32708;51.212;6.788;2022-12-29T08:56:03;99812.53;;;12.16;100.00
46955;BME280;32708;51.212;6.788;2022-12-29T08:58:31;99817.41;;;12.22;100.00
46955;BME280;32708;51.212;6.788;2022-12-29T09:00:58;99805.28;;;12.39;100.00
46955;BME280;32708;51.212;6.788;2022-12-29T09:03:26;99805.03;;;12.44;100.00
46955;BME280;32708;51.212;6.788;2022-12-29T09:05:54;99799.78;;;12.71;100.00
46955;BME280;32708;51.212;6.788;2022-12-29T09:08:22;99791.81;;;12.81;100.00
46955;BME280;32708;51.212;6.788;2022-12-29T09:10:49;99803.84;;;12.77;100.00
46955;BME280;32708;51.212;6.788;2022-12-29T09:13:17;99808.69;;;12.83;100.00
46955;BME280;32708;51.212;6.788;2022-12-29T09:15:44;99796.00;;;13.10;100.00
46955;BME280;32708;51.212;6.788;2022-12-29T09:18:12;99797.13;;;13.44;100.00
46955;BME280;32708;51.212;6.788;2022-12-29T09:20:38;99796.94;;;13.18;100.00
46955;BME280;32708;51.212;6.788;2022-12-29T09:23:05;99807.72;;;13.27;100.00
46955;BME280;32708;51.212;6.788;2022-12-29T09:25:34;99805.28;;;13.06;100.00
46955;BME280;32708;51.212;6.788;2022-12-29T09:28:04;99814.66;;;13.05;100.00
46955;BME280;32708;51.212;6.788;2022-12-29T09:30:39;99809.59;;;13.23;100.00
46955;BME280;32708;51.212;6.788;2022-12-29T09:33:07;99815.38;;;13.02;100.00
46955;BME280;32708;51.212;6.788;2022-12-29T09:35:33;99817.53;;;13.47;100.00
46955;BME280;32708;51.212;6.788;2022-12-29T09:38:03;99817.47;;;13.24;100.00
46955;BME280;32708;51.212;6.788;2022-12-29T09:40:33;99819.22;;;13.52;100.00
46955;BME280;32708;51.212;6.788;2022-12-29T09:43:55;99819.13;;;12.93;100.00
46955;BME280;32708;51.212;6.788;2022-12-29T09:46:47;99820.38;;;12.80;100.00
46955;BME280;32708;51.212;6.788;2022-12-29T09:51:56;99809.38;;;13.31;100.00
46955;BME280;32708;51.212;6.788;2022-12-29T09:57:15;99811.91;;;13.05;100.00
46955;BME280;32708;51.212;6.788;2022-12-29T09:59:55;99785.50;;;13.32;100.00
46955;BME280;32708;51.212;6.788;2022-12-29T10:02:39;99780.81;;;13.32;100.00
46955;BME280;32708;51.212;6.788;2022-12-29T10:09:00;99786.66;;;13.31;100.00
46955;BME280;32708;51.212;6.788;2022-12-29T10:25:42;99795.09;;;13.41;100.00
46955;BME280;32708;51.212;6.788;2022-12-29T10:28:37;99797.81;;;13.41;100.00
46955;BME280;32708;51.212;6.788;2022-12-29T10:31:40;99800.00;;;13.52;100.00
46955;BME280;32708;51.212;6.788;2022-12-29T10:34:33;99798.34;;;13.47;100.00
46955;BME280;32708;51.212;6.788;2022-12-29T10:40:00;99794.56;;;13.16;100.00
46955;BME280;32708;51.212;6.788;2022-12-29T10:42:45;99816.84;;;13.15;100.00
46955;BME280;32708;51.212;6.788;2022-12-29T10:45:16;99821.59;;;13.53;100.00
46955;BME280;32708;51.212;6.788;2022-12-29T10:48:25;99821.59;;;13.18;100.00
46955;BME280;32708;51.212;6.788;2022-12-29T10:50:59;99807.59;;;13.39;100.00
46955;BME280;32708;51.212;6.788;2022-12-29T10:53:38;99819.25;;;13.55;100.00
46955;BME280;32708;51.212;6.788;2022-12-29T10:56:39;99822.09;;;13.59;100.00
46955;BME280;32708;51.212;6.788;2022-12-29T10:59:31;99825.97;;;13.38;100.00
46955;BME280;32708;51.212;6.788;2022-12-29T11:08:09;99833.19;;;13.46;100.00
46955;BME280;32708;51.212;6.788;2022-12-29T11:10:42;99827.84;;;13.54;100.00
46955;BME280;32708;51.212;6.788;2022-12-29T11:13:26;99851.94;;;13.25;100.00
46955;BME280;32708;51.212;6.788;2022-12-29T11:15:52;99846.81;;;13.43;100.00
46955;BME280;32708;51.212;6.788;2022-12-29T11:18:31;99847.34;;;13.29;100.00
46955;BME280;32708;51.212;6.788;2022-12-29T11:21:01;99856.41;;;13.33;100.00
46955;BME280;32708;51.212;6.788;2022-12-29T11:23:41;99854.47;;;13.34;100.00
46955;BME280;32708;51.212;6.788;2022-12-29T11:26:17;99865.28;;;13.11;100.00
46955;BME280;32708;51.212;6.788;2022-12-29T11:31:30;99867.22;;;13.26;100.00
46955;BME280;32708;51.212;6.788;2022-12-29T11:33:56;99872.97;;;13.37;100.00
46955;BME280;32708;51.212;6.788;2022-12-29T11:36:24;99875.88;;;13.28;100.00
46955;BME280;32708;51.212;6.788;2022-12-29T11:38:55;99879.09;;;12.99;100.00
46955;BME280;32708;51.212;6.788;2022-12-29T11:41:29;99873.09;;;13.09;100.00
46955;BME280;32708;51.212;6.788;2022-12-29T11:44:05;99874.66;;;13.10;100.00
46955;BME280;32708;51.212;6.788;2022-12-29T11:46:37;99891.66;;;12.84;100.00
46955;BME280;32708;51.212;6.788;2022-12-29T11:49:22;99885.03;;;13.01;100.00
46955;BME280;32708;51.212;6.788;2022-12-29T11:51:53;99890.03;;;13.14;100.00
46955;BME280;32708;51.212;6.788;2022-12-29T11:54:25;99887.13;;;13.07;100.00
46955;BME280;32708;51.212;6.788;2022-12-29T11:56:54;99888.63;;;13.05;100.00
46955;BME280;32708;51.212;6.788;2022-12-29T12:05:41;99906.16;;;12.84;100.00
46955;BME280;32708;51.212;6.788;2022-12-29T12:09:10;99912.59;;;13.08;100.00
46955;BME280;32708;51.212;6.788;2022-12-29T12:11:31;99910.31;;;12.78;100.00
46955;BME280;32708;51.212;6.788;2022-12-29T12:17:18;99909.41;;;13.06;100.00
46955;BME280;32708;51.212;6.788;2022-12-29T12:20:02;99914.13;;;12.89;100.00
46955;BME280;32708;51.212;6.788;2022-12-29T12:22:38;99910.03;;;12.99;100.00
46955;BME280;32708;51.212;6.788;2022-12-29T12:25:30;99917.53;;;13.18;100.00
46955;BME280;32708;51.212;6.788;2022-12-29T12:28:11;99926.47;;;12.99;100.00
46955;BME280;32708;51.212;6.788;2022-12-29T12:30:49;99920.66;;;13.01;100.00
46955;BME280;32708;51.212;6.788;2022-12-29T12:33:35;99916.59;;;12.79;100.00
46955;BME280;32708;51.212;6.788;2022-12-29T12:36:53;99919.41;;;12.98;100.00
46955;BME280;32708;51.212;6.788;2022-12-29T12:42:58;99922.88;;;12.79;100.00
46955;BME280;32708;51.212;6.788;2022-12-29T12:49:02;99925.69;;;12.67;100.00
46955;BME280;32708;51.212;6.788;2022-12-29T12:55:11;99932.50;;;12.89;100.00
46955;BME280;32708;51.212;6.788;2022-12-29T13:00:24;99938.53;;;12.79;100.00
46955;BME280;32708;51.212;6.788;2022-12-29T13:03:07;99939.47;;;12.71;100.00
46955;BME280;32708;51.212;6.788;2022-12-29T13:12:35;99961.34;;;12.55;100.00
46955;BME280;32708;51.212;6.788;2022-12-29T13:21:27;99964.13;;;12.71;100.00
46955;BME280;32708;51.212;6.788;2022-12-29T13:24:03;99965.28;;;12.70;100.00
46955;BME280;32708;51.212;6.788;2022-12-29T13:26:42;99967.56;;;12.67;100.00
46955;BME280;32708;51.212;6.788;2022-12-29T13:29:45;99966.53;;;12.88;100.00
46955;BME280;32708;51.212;6.788;2022-12-29T13:38:43;99971.03;;;12.64;100.00
46955;BME280;32708;51.212;6.788;2022-12-29T13:41:41;99969.50;;;12.67;100.00
46955;BME280;32708;51.212;6.788;2022-12-29T13:44:31;99965.19;;;12.98;100.00
46955;BME280;32708;51.212;6.788;2022-12-29T13:50:01;99964.03;;;12.83;100.00
46955;BME280;32708;51.212;6.788;2022-12-29T13:55:49;99963.13;;;12.63;100.00
46955;BME280;32708;51.212;6.788;2022-12-29T13:58:52;99969.16;;;12.84;100.00
46955;BME280;32708;51.212;6.788;2022-12-29T14:01:59;99960.78;;;12.93;100.00
46955;BME280;32708;51.212;6.788;2022-12-29T14:04:34;99961.31;;;12.67;100.00
46955;BME280;32708;51.212;6.788;2022-12-29T14:07:15;99971.09;;;12.52;100.00
46955;BME280;32708;51.212;6.788;2022-12-29T14:09:48;99975.19;;;12.74;100.00
46955;BME280;32708;51.212;6.788;2022-12-29T14:12:47;99975.06;;;12.71;100.00
46955;BME280;32708;51.212;6.788;2022-12-29T14:15:22;99983.03;;;12.60;100.00
46955;BME280;32708;51.212;6.788;2022-12-29T14:18:11;99987.19;;;12.70;100.00
46955;BME280;32708;51.212;6.788;2022-12-29T14:20:59;99970.75;;;12.70;100.00
46955;BME280;32708;51.212;6.788;2022-12-29T14:23:42;99988.06;;;12.58;100.00
46955;BME280;32708;51.212;6.788;2022-12-29T14:26:32;99993.63;;;12.61;100.00
46955;BME280;32708;51.212;6.788;2022-12-29T14:31:53;99998.81;;;12.51;100.00
46955;BME280;32708;51.212;6.788;2022-12-29T14:37:01;100016.94;;;12.55;100.00
46955;BME280;32708;51.212;6.788;2022-12-29T14:39:41;100008.66;;;12.39;100.00
46955;BME280;32708;51.212;6.788;2022-12-29T14:44:52;100023.88;;;12.37;100.00
46955;BME280;32708;51.212;6.788;2022-12-29T14:47:32;100021.78;;;12.62;100.00
46955;BME280;32708;51.212;6.788;2022-12-29T14:50:24;100019.56;;;12.52;100.00
46955;BME280;32708;51.212;6.788;2022-12-29T14:53:01;100010.31;;;12.28;100.00
46955;BME280;32708;51.212;6.788;2022-12-29T14:55:47;100011.38;;;12.24;100.00
46955;BME280;32708;51.212;6.788;2022-12-29T14:58:31;100015.34;;;12.26;100.00
46955;BME280;32708;51.212;6.788;2022-12-29T15:01:00;100020.53;;;12.44;100.00
46955;BME280;32708;51.212;6.788;2022-12-29T15:03:38;100020.06;;;12.42;100.00
46955;BME280;32708;51.212;6.788;2022-12-29T15:06:18;100031.56;;;12.47;100.00
46955;BME280;32708;51.212;6.788;2022-12-29T15:14:57;100018.97;;;12.58;100.00
46955;BME280;32708;51.212;6.788;2022-12-29T15:17:33;100036.97;;;12.44;100.00
46955;BME280;32708;51.212;6.788;2022-12-29T15:20:30;100031.19;;;12.21;100.00
46955;BME280;32708;51.212;6.788;2022-12-29T15:25:30;100036.19;;;12.31;100.00
46955;BME280;32708;51.212;6.788;2022-12-29T15:28:05;100037.22;;;12.26;100.00
46955;BME280;32708;51.212;6.788;2022-12-29T15:30:33;100040.59;;;12.07;100.00